sensor_id;sensor_type;location;lat;lon;timestamp;P1;durP1;ratioP1;P2;durP2;ratioP2
9094;SDS011;4583;49.796;9.902;2023-02-08T16:34:21;15.73;;;9.80;;
9094;SDS011;4583;49.796;9.902;2023-02-08T16:44:24;22.80;;;11.13;;
9094;SDS011;4583;49.796;9.902;2023-02-08T16:59:23;24.97;;;11.50;;
9094;SDS011;4583;49.796;9.902;2023-02-08T17:09:26;25.37;;;12.00;;
9094;SDS011;4583;49.796;9.902;2023-02-08T17:19:27;24.13;;;12.40;;
9094;SDS011;4583;49.796;9.902;2023-02-08T17:29:29;23.83;;;12.80;;
9094;SDS011;4583;49.796;9.902;2023-02-08T17:39:31;32.70;;;15.20;;
9094;SDS011;4583;49.796;9.902;2023-02-08T17:49:33;31.73;;;16.07;;
9094;SDS011;4583;49.796;9.902;2023-02-08T17:59:37;32.53;;;13.63;;
9094;SDS011;4583;49.796;9.902;2023-02-08T18:09:40;24.23;;;11.50;;
9094;SDS011;4583;49.796;9.902;2023-02-08T18:24:58;23.30;;;11.20;;
9094;SDS011;4583;49.796;9.902;2023-02-08T18:35:00;20.90;;;11.23;;
9094;SDS011;4583;49.796;9.902;2023-02-08T18:45:04;22.70;;;12.70;;
9094;SDS011;4583;49.796;9.902;2023-02-08T18:55:06;22.10;;;11.67;;
9094;SDS011;4583;49.796;9.902;2023-02-08T19:05:08;22.03;;;12.33;;
9094;SDS011;4583;49.796;9.902;2023-02-08T19:15:10;23.17;;;12.87;;
9094;SDS011;4583;49.796;9.902;2023-02-08T19:25:12;20.40;;;11.77;;
9094;SDS011;4583;49.796;9.902;2023-02-08T19:35:14;22.20;;;11.90;;
9094;SDS011;4583;49.796;9.902;2023-02-08T19:46:28;24.90;;;12.63;;
9094;SDS011;4583;49.796;9.902;2023-02-08T19:56:30;22.93;;;13.30;;
9094;SDS011;4583;49.796;9.902;2023-02-08T20:06:35;28.30;;;14.13;;
9094;SDS011;4583;49.796;9.902;2023-02-08T20:16:39;27.30;;;14.77;;
9094;SDS011;4583;49.796;9.902;2023-02-08T20:26:41;27.90;;;14.77;;
9094;SDS011;4583;49.796;9.902;2023-02-08T20:36:44;30.57;;;15.77;;
9094;SDS011;4583;49.796;9.902;2023-02-08T20:47:06;27.10;;;15.97;;
9094;SDS011;4583;49.796;9.902;2023-02-08T20:57:09;31.37;;;15.37;;
9094;SDS011;4583;49.796;9.902;2023-02-08T21:07:15;33.13;;;15.37;;
9094;SDS011;4583;49.796;9.902;2023-02-08T21:17:17;28.43;;;15.60;;
9094;SDS011;4583;49.796;9.902;2023-02-08T21:32:22;31.83;;;14.37;;
9094;SDS011;4583;49.796;9.902;2023-02-08T21:42:24;33.50;;;15.70;;
9094;SDS011;4583;49.796;9.902;2023-02-08T21:52:26;28.80;;;14.60;;
9094;SDS011;4583;49.796;9.902;2023-02-08T22:02:46;33.43;;;16.77;;
9094;SDS011;4583;49.796;9.902;2023-02-08T22:21:22;35.17;;;16.53;;
9094;SDS011;4583;49.796;9.902;2023-02-08T22:37:49;34.63;;;16.50;;
9094;SDS011;4583;49.796;9.902;2023-02-08T22:48:09;31.30;;;16.53;;
9094;SDS011;4583;49.796;9.902;2023-02-08T22:58:11;36.70;;;15.83;;
9094;SDS011;4583;49.796;9.902;2023-02-08T23:08:14;38.77;;;17.60;;
9094;SDS011;4583;49.796;9.902;2023-02-08T23:18:17;33.73;;;16.57;;
9094;SDS011;4583;49.796;9.902;2023-02-08T23:28:19;30.60;;;15.57;;
9094;SDS011;4583;49.796;9.902;2023-02-08T23:38:21;28.67;;;15.23;;
9094;SDS011;4583;49.796;9.902;2023-02-08T23:48:22;34.80;;;16.40;;
9094;SDS011;4583;49.796;9.902;2023-02-08T23:58:24;34.83;;;17.43;;
